sensor_id;sensor_type;location;lat;lon;timestamp;pressure;altitude;pressure_sealevel;temperature;humidity
52975;BME280;38839;45.186;5.720;2023-06-19T00:01:58;98935.09;;;23.18;58.84
52975;BME280;38839;45.186;5.720;2023-06-19T00:04:24;98938.69;;;23.17;58.92
52975;BME280;38839;45.186;5.720;2023-06-19T00:06:50;98944.97;;;23.16;58.78
52975;BME280;38839;45.186;5.720;2023-06-19T00:09:16;98938.03;;;23.14;58.92
52975;BME280;38839;45.186;5.720;2023-06-19T00:11:42;98954.66;;;23.17;58.99
52975;BME280;38839;45.186;5.720;2023-06-19T00:14:07;98954.50;;;23.20;58.74
52975;BME280;38839;45.186;5.720;2023-06-19T00:16:33;98957.16;;;23.20;58.93
52975;BME280;38839;45.186;5.720;2023-06-19T00:18:58;98958.69;;;23.24;58.86
52975;BME280;38839;45.186;5.720;2023-06-19T00:21:24;98958.09;;;23.19;59.37
52975;BME280;38839;45.186;5.720;2023-06-19T00:23:51;98971.59;;;23.16;59.44
52975;BME280;38839;45.186;5.720;2023-06-19T00:26:17;98974.06;;;23.19;59.46
52975;BME280;38839;45.186;5.720;2023-06-19T00:28:43;98987.13;;;23.24;59.28
52975;BME280;38839;45.186;5.720;2023-06-19T00:31:10;98979.91;;;23.26;59.51
52975;BME280;38839;45.186;5.720;2023-06-19T00:33:38;98972.16;;;23.21;59.49
52975;BME280;38839;45.186;5.720;2023-06-19T00:36:12;98977.47;;;23.21;59.85
52975;BME280;38839;45.186;5.720;2023-06-19T00:38:38;98996.72;;;23.26;59.87
52975;BME280;38839;45.186;5.720;2023-06-19T00:41:04;98997.75;;;23.24;59.90
52975;BME280;38839;45.186;5.720;2023-06-19T00:43:30;99009.25;;;23.24;59.84
52975;BME280;38839;45.186;5.720;2023-06-19T00:45:57;99000.16;;;23.13;60.44
52975;BME280;38839;45.186;5.720;2023-06-19T00:48:23;98997.84;;;23.06;60.68
52975;BME280;38839;45.186;5.720;2023-06-19T00:50:50;99006.09;;;23.02;61.00
52975;BME280;38839;45.186;5.720;2023-06-19T00:53:16;99012.97;;;23.06;61.08
52975;BME280;38839;45.186;5.720;2023-06-19T00:55:43;99006.88;;;23.04;61.35
52975;BME280;38839;45.186;5.720;2023-06-19T00:58:09;99008.13;;;22.97;61.59
52975;BME280;38839;45.186;5.720;2023-06-19T01:00:35;98997.59;;;22.95;61.56
52975;BME280;38839;45.186;5.720;2023-06-19T01:03:00;98988.91;;;22.92;61.88
52975;BME280;38839;45.186;5.720;2023-06-19T01:05:26;98995.94;;;22.93;62.16
52975;BME280;38839;45.186;5.720;2023-06-19T01:10:47;98999.81;;;22.87;62.77
52975;BME280;38839;45.186;5.720;2023-06-19T01:13:27;98989.53;;;22.81;63.05
52975;BME280;38839;45.186;5.720;2023-06-19T01:15:54;98991.50;;;22.77;63.34
52975;BME280;38839;45.186;5.720;2023-06-19T01:18:21;98988.84;;;22.77;63.54
52975;BME280;38839;45.186;5.720;2023-06-19T01:20:48;98982.66;;;22.77;63.71
52975;BME280;38839;45.186;5.720;2023-06-19T01:23:14;98984.56;;;22.75;63.88
52975;BME280;38839;45.186;5.720;2023-06-19T01:25:39;98986.25;;;22.76;63.89
52975;BME280;38839;45.186;5.720;2023-06-19T01:28:06;98992.53;;;22.75;63.71
52975;BME280;38839;45.186;5.720;2023-06-19T01:30:36;98985.22;;;22.78;63.92
52975;BME280;38839;45.186;5.720;2023-06-19T01:33:23;98996.03;;;22.75;64.20
52975;BME280;38839;45.186;5.720;2023-06-19T01:35:51;98990.09;;;22.70;64.31
52975;BME280;38839;45.186;5.720;2023-06-19T01:38:19;98992.09;;;22.66;64.78
52975;BME280;38839;45.186;5.720;2023-06-19T01:40:46;98985.75;;;22.69;65.01
52975;BME280;38839;45.186;5.720;2023-06-19T01:43:14;98995.44;;;22.70;65.25
52975;BME280;38839;45.186;5.720;2023-06-19T01:45:41;98991.06;;;22.69;65.42
52975;BME280;38839;45.186;5.720;2023-06-19T01:48:07;98989.34;;;22.68;65.36
52975;BME280;38839;45.186;5.720;2023-06-19T01:50:33;98979.03;;;22.62;65.72
52975;BME280;38839;45.186;5.720;2023-06-19T01:52:59;98975.72;;;22.58;65.87
52975;BME280;38839;45.186;5.720;2023-06-19T01:55:25;98978.19;;;22.61;65.66
52975;BME280;38839;45.186;5.720;2023-06-19T01:57:50;98976.63;;;22.57;66.24
52975;BME280;38839;45.186;5.720;2023-06-19T02:00:16;98977.81;;;22.52;66.24
52975;BME280;38839;45.186;5.720;2023-06-19T02:02:42;98971.31;;;22.57;66.28
52975;BME280;38839;45.186;5.720;2023-06-19T02:05:08;98984.53;;;22.59;66.30
52975;BME280;38839;45.186;5.720;2023-06-19T02:07:33;98976.56;;;22.59;66.21
52975;BME280;38839;45.186;5.720;2023-06-19T02:09:59;98966.84;;;22.58;66.52
52975;BME280;38839;45.186;5.720;2023-06-19T02:12:24;98971.50;;;22.54;66.46
52975;BME280;38839;45.186;5.720;2023-06-19T02:14:49;98967.03;;;22.55;66.46
52975;BME280;38839;45.186;5.720;2023-06-19T02:17:15;98955.00;;;22.47;67.08
52975;BME280;38839;45.186;5.720;2023-06-19T02:19:40;98958.63;;;22.46;67.41
52975;BME280;38839;45.186;5.720;2023-06-19T02:22:06;98966.53;;;22.48;67.28
52975;BME280;38839;45.186;5.720;2023-06-19T02:24:32;98964.53;;;22.52;67.25
52975;BME280;38839;45.186;5.720;2023-06-19T02:26:57;98961.88;;;22.52;67.46
52975;BME280;38839;45.186;5.720;2023-06-19T02:29:23;98955.97;;;22.46;67.39
52975;BME280;38839;45.186;5.720;2023-06-19T02:31:49;98963.09;;;22.46;67.73
52975;BME280;38839;45.186;5.720;2023-06-19T02:34:15;98966.59;;;22.46;67.74
52975;BME280;38839;45.186;5.720;2023-06-19T02:36:40;98972.78;;;22.47;67.87
52975;BME280;38839;45.186;5.720;2023-06-19T02:39:06;98963.75;;;22.49;67.83
52975;BME280;38839;45.186;5.720;2023-06-19T02:41:31;98950.91;;;22.42;68.10
52975;BME280;38839;45.186;5.720;2023-06-19T02:43:57;98957.56;;;22.33;68.34
52975;BME280;38839;45.186;5.720;2023-06-19T02:46:22;98954.13;;;22.31;68.69
52975;BME280;38839;45.186;5.720;2023-06-19T02:48:48;98955.69;;;22.35;68.92
52975;BME280;38839;45.186;5.720;2023-06-19T02:51:13;98945.25;;;22.32;69.01
52975;BME280;38839;45.186;5.720;2023-06-19T02:53:38;98947.91;;;22.32;68.87
52975;BME280;38839;45.186;5.720;2023-06-19T02:56:04;98945.25;;;22.32;69.13
52975;BME280;38839;45.186;5.720;2023-06-19T02:58:30;98946.09;;;22.33;69.01
52975;BME280;38839;45.186;5.720;2023-06-19T03:00:56;98944.06;;;22.38;69.24
52975;BME280;38839;45.186;5.720;2023-06-19T03:03:21;98940.69;;;22.34;69.29
52975;BME280;38839;45.186;5.720;2023-06-19T03:05:48;98944.47;;;22.30;69.28
52975;BME280;38839;45.186;5.720;2023-06-19T03:08:13;98950.56;;;22.32;69.07
52975;BME280;38839;45.186;5.720;2023-06-19T03:10:39;98947.97;;;22.30;69.78
52975;BME280;38839;45.186;5.720;2023-06-19T03:13:04;98953.47;;;22.27;69.76
52975;BME280;38839;45.186;5.720;2023-06-19T03:15:29;98950.88;;;22.26;69.98
52975;BME280;38839;45.186;5.720;2023-06-19T03:17:55;98957.91;;;22.27;69.90
52975;BME280;38839;45.186;5.720;2023-06-19T03:20:20;98941.19;;;22.25;70.19
52975;BME280;38839;45.186;5.720;2023-06-19T03:22:46;98952.28;;;22.16;70.44
52975;BME280;38839;45.186;5.720;2023-06-19T03:25:11;98959.50;;;22.14;70.68
52975;BME280;38839;45.186;5.720;2023-06-19T03:27:37;98954.94;;;22.16;70.62
52975;BME280;38839;45.186;5.720;2023-06-19T03:30:04;98962.16;;;22.14;71.09
52975;BME280;38839;45.186;5.720;2023-06-19T03:32:33;98956.84;;;22.14;70.97
52975;BME280;38839;45.186;5.720;2023-06-19T03:34:59;98956.06;;;22.12;70.98
52975;BME280;38839;45.186;5.720;2023-06-19T03:37:24;98960.28;;;21.98;71.77
52975;BME280;38839;45.186;5.720;2023-06-19T03:39:50;98966.63;;;21.96;71.78
52975;BME280;38839;45.186;5.720;2023-06-19T03:42:15;98957.63;;;21.98;71.91
52975;BME280;38839;45.186;5.720;2023-06-19T03:44:41;98968.25;;;21.98;72.07
52975;BME280;38839;45.186;5.720;2023-06-19T03:47:06;98977.00;;;22.00;72.09
52975;BME280;38839;45.186;5.720;2023-06-19T03:49:32;98975.13;;;22.02;72.13
52975;BME280;38839;45.186;5.720;2023-06-19T03:51:57;98973.44;;;22.01;71.80
52975;BME280;38839;45.186;5.720;2023-06-19T03:54:23;98971.69;;;22.00;72.32
52975;BME280;38839;45.186;5.720;2023-06-19T03:56:48;98978.56;;;22.04;71.84
52975;BME280;38839;45.186;5.720;2023-06-19T03:59:13;98982.16;;;22.03;71.68
52975;BME280;38839;45.186;5.720;2023-06-19T04:01:39;98980.28;;;22.05;71.78
52975;BME280;38839;45.186;5.720;2023-06-19T04:04:05;98968.63;;;22.08;71.93
52975;BME280;38839;45.186;5.720;2023-06-19T04:06:31;98973.81;;;22.11;71.85
52975;BME280;38839;45.186;5.720;2023-06-19T04:08:56;98978.09;;;22.14;71.84
52975;BME280;38839;45.186;5.720;2023-06-19T04:11:21;98981.66;;;22.13;71.70
52975;BME280;38839;45.186;5.720;2023-06-19T04:13:47;98986.84;;;22.16;71.41
52975;BME280;38839;45.186;5.720;2023-06-19T04:16:12;98988.38;;;22.20;71.27
52975;BME280;38839;45.186;5.720;2023-06-19T04:18:38;98986.34;;;22.25;71.31
52975;BME280;38839;45.186;5.720;2023-06-19T04:21:03;98980.25;;;22.23;71.23
52975;BME280;38839;45.186;5.720;2023-06-19T04:23:28;98974.06;;;22.22;71.10
52975;BME280;38839;45.186;5.720;2023-06-19T04:25:54;98979.28;;;22.25;71.08
52975;BME280;38839;45.186;5.720;2023-06-19T04:28:19;98985.09;;;22.32;71.04
52975;BME280;38839;45.186;5.720;2023-06-19T04:30:45;98980.72;;;22.31;70.86
52975;BME280;38839;45.186;5.720;2023-06-19T04:33:10;98982.59;;;22.29;70.94
52975;BME280;38839;45.186;5.720;2023-06-19T04:35:35;98994.00;;;22.31;70.92
52975;BME280;38839;45.186;5.720;2023-06-19T04:38:09;98985.25;;;22.29;70.92
52975;BME280;38839;45.186;5.720;2023-06-19T04:40:35;98988.22;;;22.23;71.33
52975;BME280;38839;45.186;5.720;2023-06-19T04:43:03;98987.31;;;22.24;71.45
52975;BME280;38839;45.186;5.720;2023-06-19T04:45:30;98993.63;;;22.21;71.44
52975;BME280;38839;45.186;5.720;2023-06-19T04:47:56;98989.78;;;22.27;71.50
52975;BME280;38839;45.186;5.720;2023-06-19T04:50:21;98988.53;;;22.34;71.60
52975;BME280;38839;45.186;5.720;2023-06-19T04:52:47;98984.16;;;22.33;71.31
52975;BME280;38839;45.186;5.720;2023-06-19T04:55:15;98987.75;;;22.32;71.45
52975;BME280;38839;45.186;5.720;2023-06-19T04:57:40;98981.81;;;22.27;71.64
52975;BME280;38839;45.186;5.720;2023-06-19T05:00:06;98985.38;;;22.27;71.69
52975;BME280;38839;45.186;5.720;2023-06-19T05:02:33;98991.19;;;22.34;71.25
52975;BME280;38839;45.186;5.720;2023-06-19T05:04:59;98987.50;;;22.37;71.29
52975;BME280;38839;45.186;5.720;2023-06-19T05:07:31;98988.97;;;22.42;71.10
52975;BME280;38839;45.186;5.720;2023-06-19T05:09:57;98983.16;;;22.52;70.86
52975;BME280;38839;45.186;5.720;2023-06-19T05:12:25;98980.69;;;22.64;70.37
52975;BME280;38839;45.186;5.720;2023-06-19T05:14:51;98988.75;;;22.63;70.49
52975;BME280;38839;45.186;5.720;2023-06-19T05:17:16;98995.53;;;22.68;70.02
52975;BME280;38839;45.186;5.720;2023-06-19T05:19:41;98986.84;;;22.65;70.17
52975;BME280;38839;45.186;5.720;2023-06-19T05:22:07;98982.72;;;22.59;70.28
52975;BME280;38839;45.186;5.720;2023-06-19T05:24:33;98975.59;;;22.60;70.35
52975;BME280;38839;45.186;5.720;2023-06-19T05:26:58;98985.25;;;22.62;70.04
52975;BME280;38839;45.186;5.720;2023-06-19T05:29:24;98988.84;;;22.77;69.84
52975;BME280;38839;45.186;5.720;2023-06-19T05:31:50;98993.81;;;22.83;69.66
52975;BME280;38839;45.186;5.720;2023-06-19T05:34:15;98988.56;;;22.98;69.56
52975;BME280;38839;45.186;5.720;2023-06-19T05:36:40;98990.78;;;23.21;68.34
52975;BME280;38839;45.186;5.720;2023-06-19T05:39:05;98996.66;;;23.12;68.43
52975;BME280;38839;45.186;5.720;2023-06-19T05:41:31;99003.44;;;23.02;68.82
52975;BME280;38839;45.186;5.720;2023-06-19T05:43:57;98993.69;;;23.01;69.28
52975;BME280;38839;45.186;5.720;2023-06-19T05:46:22;98993.66;;;23.02;68.97
52975;BME280;38839;45.186;5.720;2023-06-19T05:48:47;98995.38;;;23.03;68.66
52975;BME280;38839;45.186;5.720;2023-06-19T05:51:13;98994.28;;;23.07;68.97
52975;BME280;38839;45.186;5.720;2023-06-19T05:53:39;98993.28;;;22.93;69.32
52975;BME280;38839;45.186;5.720;2023-06-19T05:56:04;98993.47;;;22.74;69.73
52975;BME280;38839;45.186;5.720;2023-06-19T05:58:31;98996.91;;;22.76;70.06
52975;BME280;38839;45.186;5.720;2023-06-19T06:00:56;98994.16;;;22.77;69.98
52975;BME280;38839;45.186;5.720;2023-06-19T06:03:25;98998.19;;;22.84;69.54
52975;BME280;38839;45.186;5.720;2023-06-19T06:05:51;98994.66;;;23.00;69.18
52975;BME280;38839;45.186;5.720;2023-06-19T06:08:17;99008.50;;;23.22;68.57
52975;BME280;38839;45.186;5.720;2023-06-19T06:10:42;99001.03;;;23.59;67.56
52975;BME280;38839;45.186;5.720;2023-06-19T06:13:08;98998.63;;;23.85;66.75
52975;BME280;38839;45.186;5.720;2023-06-19T06:15:34;99000.28;;;24.02;66.00
52975;BME280;38839;45.186;5.720;2023-06-19T06:17:59;99002.28;;;24.13;65.64
52975;BME280;38839;45.186;5.720;2023-06-19T06:20:24;98998.41;;;24.18;65.95
52975;BME280;38839;45.186;5.720;2023-06-19T06:22:50;98998.59;;;24.29;65.23
52975;BME280;38839;45.186;5.720;2023-06-19T06:25:15;98994.09;;;24.16;65.60
52975;BME280;38839;45.186;5.720;2023-06-19T06:27:41;99005.53;;;24.18;65.53
52975;BME280;38839;45.186;5.720;2023-06-19T06:30:07;99000.41;;;24.15;65.40
52975;BME280;38839;45.186;5.720;2023-06-19T06:32:33;99003.69;;;23.59;66.78
52975;BME280;38839;45.186;5.720;2023-06-19T06:34:59;99002.16;;;23.55;67.29
52975;BME280;38839;45.186;5.720;2023-06-19T06:37:24;98999.44;;;23.41;67.76
52975;BME280;38839;45.186;5.720;2023-06-19T06:39:51;99005.28;;;23.32;68.12
52975;BME280;38839;45.186;5.720;2023-06-19T06:42:17;99008.56;;;23.21;68.10
52975;BME280;38839;45.186;5.720;2023-06-19T06:44:42;99004.34;;;23.01;68.84
52975;BME280;38839;45.186;5.720;2023-06-19T06:47:08;99008.66;;;22.87;69.69
52975;BME280;38839;45.186;5.720;2023-06-19T06:49:33;99020.84;;;22.92;69.62
52975;BME280;38839;45.186;5.720;2023-06-19T06:51:59;99025.13;;;22.94;70.99
52975;BME280;38839;45.186;5.720;2023-06-19T06:54:24;99026.31;;;22.88;71.50
52975;BME280;38839;45.186;5.720;2023-06-19T06:56:50;99030.63;;;22.91;72.35
52975;BME280;38839;45.186;5.720;2023-06-19T06:59:17;99035.75;;;22.94;72.45
52975;BME280;38839;45.186;5.720;2023-06-19T07:01:43;99031.28;;;22.95;72.47
52975;BME280;38839;45.186;5.720;2023-06-19T07:04:08;99030.28;;;22.81;73.15
52975;BME280;38839;45.186;5.720;2023-06-19T07:06:33;99039.53;;;22.74;73.16
52975;BME280;38839;45.186;5.720;2023-06-19T07:08:59;99042.06;;;22.60;73.71
52975;BME280;38839;45.186;5.720;2023-06-19T07:11:24;99032.53;;;22.56;73.94
52975;BME280;38839;45.186;5.720;2023-06-19T07:13:50;99028.19;;;22.55;74.21
52975;BME280;38839;45.186;5.720;2023-06-19T07:16:15;99031.22;;;22.64;73.68
52975;BME280;38839;45.186;5.720;2023-06-19T07:18:40;99039.09;;;22.66;74.37
52975;BME280;38839;45.186;5.720;2023-06-19T07:21:11;99040.56;;;22.72;75.10
52975;BME280;38839;45.186;5.720;2023-06-19T07:23:39;99022.03;;;22.86;75.00
52975;BME280;38839;45.186;5.720;2023-06-19T07:26:05;99030.06;;;23.02;74.79
52975;BME280;38839;45.186;5.720;2023-06-19T07:28:30;99034.72;;;22.97;74.99
52975;BME280;38839;45.186;5.720;2023-06-19T07:30:56;99032.28;;;23.09;74.66
52975;BME280;38839;45.186;5.720;2023-06-19T07:33:21;99030.19;;;23.30;74.71
52975;BME280;38839;45.186;5.720;2023-06-19T07:35:47;99031.19;;;23.44;73.97
52975;BME280;38839;45.186;5.720;2023-06-19T07:38:12;99021.59;;;23.72;73.30
52975;BME280;38839;45.186;5.720;2023-06-19T07:40:37;99038.41;;;23.88;73.06
52975;BME280;38839;45.186;5.720;2023-06-19T07:43:03;99039.94;;;23.92;72.70
52975;BME280;38839;45.186;5.720;2023-06-19T07:45:28;99032.44;;;23.99;73.25
52975;BME280;38839;45.186;5.720;2023-06-19T07:47:55;99039.63;;;24.13;73.31
52975;BME280;38839;45.186;5.720;2023-06-19T07:50:21;99029.88;;;23.97;73.54
52975;BME280;38839;45.186;5.720;2023-06-19T07:52:46;99032.53;;;23.97;73.56
52975;BME280;38839;45.186;5.720;2023-06-19T07:55:11;99035.19;;;23.97;73.38
52975;BME280;38839;45.186;5.720;2023-06-19T07:57:37;99033.91;;;24.19;72.86
52975;BME280;38839;45.186;5.720;2023-06-19T08:00:03;99035.81;;;24.17;72.84
52975;BME280;38839;45.186;5.720;2023-06-19T08:02:41;99043.44;;;24.37;72.21
52975;BME280;38839;45.186;5.720;2023-06-19T08:05:08;99038.56;;;24.44;71.95
52975;BME280;38839;45.186;5.720;2023-06-19T08:07:35;99037.38;;;24.49;71.88
52975;BME280;38839;45.186;5.720;2023-06-19T08:10:01;99031.03;;;24.36;72.48
52975;BME280;38839;45.186;5.720;2023-06-19T08:12:26;99029.13;;;24.38;72.76
52975;BME280;38839;45.186;5.720;2023-06-19T08:14:52;99026.84;;;24.18;72.70
52975;BME280;38839;45.186;5.720;2023-06-19T08:17:17;99036.19;;;24.10;72.86
52975;BME280;38839;45.186;5.720;2023-06-19T08:19:43;99031.78;;;24.09;72.68
52975;BME280;38839;45.186;5.720;2023-06-19T08:22:08;99027.34;;;24.10;72.63
52975;BME280;38839;45.186;5.720;2023-06-19T08:24:35;99019.22;;;24.26;72.42
52975;BME280;38839;45.186;5.720;2023-06-19T08:27:05;99025.25;;;24.29;72.11
52975;BME280;38839;45.186;5.720;2023-06-19T08:29:31;99027.06;;;24.15;72.84
52975;BME280;38839;45.186;5.720;2023-06-19T08:31:56;99014.66;;;24.14;72.41
52975;BME280;38839;45.186;5.720;2023-06-19T08:34:22;99023.22;;;24.04;72.46
52975;BME280;38839;45.186;5.720;2023-06-19T08:36:49;99020.94;;;23.98;72.89
52975;BME280;38839;45.186;5.720;2023-06-19T08:39:15;99017.50;;;23.96;72.74
52975;BME280;38839;45.186;5.720;2023-06-19T08:41:42;99023.13;;;23.92;72.33
52975;BME280;38839;45.186;5.720;2023-06-19T08:44:08;99025.53;;;24.10;72.11
52975;BME280;38839;45.186;5.720;2023-06-19T08:46:35;99024.78;;;24.23;71.21
52975;BME280;38839;45.186;5.720;2023-06-19T08:49:03;99020.75;;;24.30;71.30
52975;BME280;38839;45.186;5.720;2023-06-19T08:51:29;99012.00;;;24.14;71.96
52975;BME280;38839;45.186;5.720;2023-06-19T08:53:59;99003.59;;;23.91;72.71
52975;BME280;38839;45.186;5.720;2023-06-19T08:56:24;99003.09;;;23.84;73.20
52975;BME280;38839;45.186;5.720;2023-06-19T08:58:50;99011.22;;;24.12;72.20
52975;BME280;38839;45.186;5.720;2023-06-19T09:01:19;99009.31;;;24.14;72.69
52975;BME280;38839;45.186;5.720;2023-06-19T09:03:44;99000.94;;;24.05;72.93
52975;BME280;38839;45.186;5.720;2023-06-19T09:06:14;99002.84;;;24.18;72.91
52975;BME280;38839;45.186;5.720;2023-06-19T09:08:40;98999.16;;;24.49;72.06
52975;BME280;38839;45.186;5.720;2023-06-19T09:11:05;99003.25;;;24.26;72.60
52975;BME280;38839;45.186;5.720;2023-06-19T09:13:32;99000.19;;;24.32;72.74
52975;BME280;38839;45.186;5.720;2023-06-19T09:16:08;99008.19;;;24.32;70.55
52975;BME280;38839;45.186;5.720;2023-06-19T09:18:47;99001.72;;;24.36;69.79
52975;BME280;38839;45.186;5.720;2023-06-19T09:21:20;99003.81;;;24.45;69.25
52975;BME280;38839;45.186;5.720;2023-06-19T09:23:48;98998.31;;;24.63;68.60
52975;BME280;38839;45.186;5.720;2023-06-19T09:26:17;98998.97;;;25.08;66.68
52975;BME280;38839;45.186;5.720;2023-06-19T09:28:44;98998.72;;;24.98;67.11
52975;BME280;38839;45.186;5.720;2023-06-19T09:31:10;98997.56;;;25.02;67.76
52975;BME280;38839;45.186;5.720;2023-06-19T09:33:36;98993.88;;;25.45;66.83
52975;BME280;38839;45.186;5.720;2023-06-19T09:36:04;99001.31;;;25.67;66.44
52975;BME280;38839;45.186;5.720;2023-06-19T09:38:35;98989.50;;;26.98;62.85
52975;BME280;38839;45.186;5.720;2023-06-19T09:41:04;98982.88;;;28.32;59.13
52975;BME280;38839;45.186;5.720;2023-06-19T09:43:36;98986.06;;;28.37;57.20
52975;BME280;38839;45.186;5.720;2023-06-19T09:46:03;98983.84;;;28.08;56.36
52975;BME280;38839;45.186;5.720;2023-06-19T09:48:30;98978.31;;;27.41;58.69
52975;BME280;38839;45.186;5.720;2023-06-19T09:51:19;98963.88;;;28.35;56.19
52975;BME280;38839;45.186;5.720;2023-06-19T09:53:45;98963.47;;;28.85;54.53
52975;BME280;38839;45.186;5.720;2023-06-19T09:56:12;98968.72;;;28.86;54.65
52975;BME280;38839;45.186;5.720;2023-06-19T09:58:39;98967.53;;;28.57;54.71
52975;BME280;38839;45.186;5.720;2023-06-19T10:01:05;98967.41;;;27.66;56.16
52975;BME280;38839;45.186;5.720;2023-06-19T10:03:33;98966.75;;;27.87;56.23
52975;BME280;38839;45.186;5.720;2023-06-19T10:06:03;98964.25;;;27.73;55.56
52975;BME280;38839;45.186;5.720;2023-06-19T10:08:39;98961.50;;;27.39;56.20
52975;BME280;38839;45.186;5.720;2023-06-19T10:11:09;98953.84;;;27.45;56.10
52975;BME280;38839;45.186;5.720;2023-06-19T10:13:43;98948.44;;;27.10;57.27
52975;BME280;38839;45.186;5.720;2023-06-19T10:16:22;98945.06;;;27.43;56.94
52975;BME280;38839;45.186;5.720;2023-06-19T10:18:51;98943.38;;;28.00;55.50
52975;BME280;38839;45.186;5.720;2023-06-19T10:21:21;98949.16;;;27.72;55.48
52975;BME280;38839;45.186;5.720;2023-06-19T10:23:55;98948.56;;;27.33;55.92
52975;BME280;38839;45.186;5.720;2023-06-19T10:26:33;98943.06;;;27.10;57.19
52975;BME280;38839;45.186;5.720;2023-06-19T10:29:12;98945.22;;;27.53;56.48
52975;BME280;38839;45.186;5.720;2023-06-19T10:31:42;98937.16;;;26.94;56.43
52975;BME280;38839;45.186;5.720;2023-06-19T10:34:15;98938.19;;;27.04;56.71
52975;BME280;38839;45.186;5.720;2023-06-19T10:36:47;98936.63;;;26.64;57.72
52975;BME280;38839;45.186;5.720;2023-06-19T10:39:18;98931.94;;;26.42;58.16
52975;BME280;38839;45.186;5.720;2023-06-19T10:41:50;98936.44;;;26.29;59.49
52975;BME280;38839;45.186;5.720;2023-06-19T10:44:23;98930.88;;;26.32;59.36
52975;BME280;38839;45.186;5.720;2023-06-19T10:46:54;98923.81;;;26.31;60.03
52975;BME280;38839;45.186;5.720;2023-06-19T10:49:24;98918.28;;;26.21;60.80
52975;BME280;38839;45.186;5.720;2023-06-19T10:51:58;98906.69;;;26.46;60.44
52975;BME280;38839;45.186;5.720;2023-06-19T10:54:28;98915.44;;;26.48;60.75
52975;BME280;38839;45.186;5.720;2023-06-19T10:56:57;98906.59;;;26.35;61.13
52975;BME280;38839;45.186;5.720;2023-06-19T10:59:31;98916.09;;;26.39;61.45
52975;BME280;38839;45.186;5.720;2023-06-19T11:01:59;98908.94;;;26.40;61.44
52975;BME280;38839;45.186;5.720;2023-06-19T11:04:29;98903.56;;;26.53;60.73
52975;BME280;38839;45.186;5.720;2023-06-19T11:07:05;98902.22;;;26.34;60.63
52975;BME280;38839;45.186;5.720;2023-06-19T11:09:38;98901.53;;;26.43;61.17
52975;BME280;38839;45.186;5.720;2023-06-19T11:12:07;98893.50;;;26.56;61.17
52975;BME280;38839;45.186;5.720;2023-06-19T11:14:34;98890.19;;;26.53;61.40
52975;BME280;38839;45.186;5.720;2023-06-19T11:17:06;98876.28;;;26.60;61.44
52975;BME280;38839;45.186;5.720;2023-06-19T11:19:35;98881.13;;;26.79;60.82
52975;BME280;38839;45.186;5.720;2023-06-19T11:22:07;98881.88;;;26.93;60.46
52975;BME280;38839;45.186;5.720;2023-06-19T11:24:43;98873.75;;;26.70;60.35
52975;BME280;38839;45.186;5.720;2023-06-19T11:27:20;98868.69;;;26.78;59.76
52975;BME280;38839;45.186;5.720;2023-06-19T11:30:00;98868.22;;;26.84;59.17
52975;BME280;38839;45.186;5.720;2023-06-19T11:32:36;98862.84;;;26.97;57.94
52975;BME280;38839;45.186;5.720;2023-06-19T11:35:16;98858.31;;;26.98;56.67
52975;BME280;38839;45.186;5.720;2023-06-19T11:37:48;98845.84;;;27.09;56.31
52975;BME280;38839;45.186;5.720;2023-06-19T11:40:21;98844.81;;;27.35;56.07
52975;BME280;38839;45.186;5.720;2023-06-19T11:42:55;98851.28;;;27.32;53.51
52975;BME280;38839;45.186;5.720;2023-06-19T11:45:24;98842.53;;;27.17;52.68
52975;BME280;38839;45.186;5.720;2023-06-19T11:47:55;98837.81;;;27.21;51.58
52975;BME280;38839;45.186;5.720;2023-06-19T11:50:29;98826.91;;;27.35;50.44
52975;BME280;38839;45.186;5.720;2023-06-19T11:52:59;98811.94;;;27.44;50.20
52975;BME280;38839;45.186;5.720;2023-06-19T11:55:31;98808.53;;;27.42;50.48
52975;BME280;38839;45.186;5.720;2023-06-19T11:58:02;98806.13;;;27.39;50.91
52975;BME280;38839;45.186;5.720;2023-06-19T12:00:37;98802.94;;;27.56;50.65
52975;BME280;38839;45.186;5.720;2023-06-19T12:03:05;98814.88;;;27.52;50.56
52975;BME280;38839;45.186;5.720;2023-06-19T12:05:37;98802.59;;;27.61;50.62
52975;BME280;38839;45.186;5.720;2023-06-19T12:08:06;98801.25;;;27.66;50.61
52975;BME280;38839;45.186;5.720;2023-06-19T12:10:35;98803.69;;;27.69;50.80
52975;BME280;38839;45.186;5.720;2023-06-19T12:13:05;98791.75;;;27.74;50.78
52975;BME280;38839;45.186;5.720;2023-06-19T12:15:35;98787.88;;;27.55;50.54
52975;BME280;38839;45.186;5.720;2023-06-19T12:18:07;98791.28;;;27.57;50.34
52975;BME280;38839;45.186;5.720;2023-06-19T12:20:37;98778.84;;;27.56;50.80
52975;BME280;38839;45.186;5.720;2023-06-19T12:23:10;98768.63;;;27.61;50.65
52975;BME280;38839;45.186;5.720;2023-06-19T12:25:43;98777.13;;;27.66;51.05
52975;BME280;38839;45.186;5.720;2023-06-19T12:28:13;98773.59;;;27.66;50.61
52975;BME280;38839;45.186;5.720;2023-06-19T12:30:46;98756.06;;;27.62;50.77
52975;BME280;38839;45.186;5.720;2023-06-19T12:33:18;98750.09;;;27.58;51.10
52975;BME280;38839;45.186;5.720;2023-06-19T12:35:47;98754.97;;;27.76;50.81
52975;BME280;38839;45.186;5.720;2023-06-19T12:38:16;98748.63;;;27.77;50.68
52975;BME280;38839;45.186;5.720;2023-06-19T12:40:49;98743.63;;;27.95;50.72
52975;BME280;38839;45.186;5.720;2023-06-19T12:43:21;98744.34;;;28.08;50.39
52975;BME280;38839;45.186;5.720;2023-06-19T12:45:52;98749.81;;;28.06;50.62
52975;BME280;38839;45.186;5.720;2023-06-19T12:48:23;98736.88;;;28.12;50.77
52975;BME280;38839;45.186;5.720;2023-06-19T12:50:57;98741.22;;;28.24;50.44
52975;BME280;38839;45.186;5.720;2023-06-19T12:53:27;98741.28;;;28.13;50.56
52975;BME280;38839;45.186;5.720;2023-06-19T12:55:59;98734.63;;;27.96;50.74
52975;BME280;38839;45.186;5.720;2023-06-19T12:58:28;98733.03;;;27.93;51.20
52975;BME280;38839;45.186;5.720;2023-06-19T13:00:58;98739.00;;;27.85;51.31
52975;BME280;38839;45.186;5.720;2023-06-19T13:03:31;98733.75;;;27.84;51.49
52975;BME280;38839;45.186;5.720;2023-06-19T13:06:04;98739.50;;;27.91;51.72